Latest Weather Observations for Parkes Airport

IDN60801

Issued at 7:32 pm EST Saturday 27 May 2017 (issued every 30 minutes, with the page automatically refreshed every 10 minutes)

About weather observations | Map of weather stations | Latest weather observations for NSW | Other Formats
Station Details ID: 065068 Name: PARKES AIRPORT AWS Lat: -33.13 Lon: 148.24 Height: 323.3 m
Data from the previous 72 hours. | See also: Recent months at Parkes Airport
Date/Time
EST
Temp
°C
App
Temp
°C
Dew
Point
°C
Rel
Hum
%
Delta-T
°C
Wind Press
QNH
hPa
Press
MSL
hPa
Rain since
9am
mm
Dir  Spd
km/h
Gust
km/h
Spd
kts
Gust
kts
27/07:30pm 9.7 6.6 7.3 85 1.2 ENE 13 17 7 9 1017.4 1017.3 0.0
27/07:00pm 10.5 7.5 7.9 84 1.3 E 13 15 7 8 1017.3 1017.2 0.0
27/06:30pm 10.5 8.3 7.7 83 1.4 E 9 11 5 6 1017.3 1017.2 0.0
27/06:00pm 11.1 10.5 7.2 77 1.9 CALM 0 0 0 0 1017.1 1017.1 0.0
27/05:30pm 13.2 12.1 7.0 66 3.1 NNW 2 7 1 4 1017.0 1017.0 0.0
27/05:00pm 16.7 15.1 8.7 59 4.2 N 7 9 4 5 1016.8 1016.8 0.0
27/04:30pm 18.3 16.3 8.6 53 5.1 N 9 13 5 7 1016.9 1016.9 0.0
27/04:00pm 19.1 15.6 8.7 51 5.5 NNW 17 20 9 11 1017.0 1017.0 0.0
27/03:30pm 19.5 15.9 8.5 49 5.8 NNW 17 20 9 11 1017.3 1017.2 0.0
27/03:00pm 19.6 15.5 7.7 46 6.2 N 19 28 10 15 1017.4 1017.3 0.0
27/02:30pm 19.5 14.7 7.3 45 6.3 N 22 26 12 14 1017.4 1017.3 0.0
27/02:00pm 19.4 15.2 7.5 46 6.2 NNW 19 26 10 14 1017.8 1017.7 0.0
27/01:30pm 19.2 14.6 8.2 49 5.8 NNW 22 28 12 15 1018.2 1018.1 0.0
27/01:00pm 19.0 16.1 9.5 54 5.1 N 15 20 8 11 1018.4 1018.3 0.0
27/12:30pm 18.4 14.7 9.5 56 4.8 N 19 22 10 12 1018.9 1018.9 0.0
27/12:00pm 17.9 14.3 8.5 54 4.9 N 17 22 9 12 1019.4 1019.4 0.0
27/11:30am 17.8 13.6 8.4 54 4.9 N 20 28 11 15 1019.8 1019.8 0.0
27/11:00am 17.3 15.3 10.2 63 3.8 NNE 11 17 6 9 1020.1 1020.1 0.0
27/10:30am 16.1 13.7 10.0 67 3.3 NE 13 17 7 9 1020.7 1020.6 0.0
27/10:00am 14.8 13.1 10.0 73 2.5 NNE 9 13 5 7 1021.2 1021.1 0.0
27/09:30am 13.6 13.5 9.3 75 2.2 CALM 0 0 0 0 1021.4 1021.3 0.0
27/09:00am 11.6 11.7 10.2 91 0.7 CALM 0 0 0 0 1021.4 1021.3 0.0
27/08:30am 8.5 7.4 8.4 99 0.0 NE 4 6 2 3 1021.5 1021.5 0.0
27/08:00am 5.4 3.2 5.3 99 0.0 NE 6 7 3 4 1021.4 1021.3 0.0
27/07:30am 3.2 0.4 2.9 98 0.1 NE 7 9 4 5 1021.2 1021.1 0.0
27/07:00am 2.4 -0.4 2.0 97 0.2 WSW 6 7 3 4 1021.2 1021.1 0.0
27/06:30am 3.2 0.4 2.9 98 0.1 E 7 9 4 5 1021.0 1020.9 0.0
27/06:00am 3.0 -1.0 2.6 97 0.2 E 13 13 7 7 1021.0 1020.9 0.0
27/05:30am 3.3 0.6 2.9 97 0.2 NE 6 9 3 5 1021.1 1021.0 0.0
27/05:00am 3.5 2.0 3.2 98 0.1 CALM 0 0 0 0 1020.9 1020.8 0.0
27/04:30am 4.0 1.5 3.7 98 0.1 NE 6 7 3 4 1020.8 1020.7 0.0
27/04:00am 3.7 0.9 3.3 97 0.2 NE 7 9 4 5 1020.7 1020.6 0.0
27/03:30am 4.6 1.6 4.3 98 0.1 NE 9 11 5 6 1020.6 1020.5 0.0
27/03:00am 4.1 0.6 3.7 97 0.2 ENE 11 13 6 7 1020.8 1020.7 0.0
27/02:30am 4.1 1.0 3.7 97 0.2 NE 9 13 5 7 1021.1 1021.0 0.0
27/02:00am 4.9 2.4 4.6 98 0.1 ENE 7 11 4 6 1021.1 1021.0 0.0
27/01:30am 4.2 1.7 3.6 96 0.3 N 6 9 3 5 1021.4 1021.3 0.0
27/01:00am 4.6 1.6 4.2 97 0.2 E 9 13 5 7 1021.3 1021.2 0.0
27/12:30am 4.7 2.6 4.1 96 0.3 E 4 7 2 4 1021.5 1021.5 0.0
27/12:00am 5.2 2.7 4.8 97 0.2 E 7 9 4 5 1021.5 1021.5 0.0
 
Date/Time
EST
Temp
°C
App
Temp
°C
Dew
Point
°C
Rel
Hum
%
Delta-T
°C
Wind Press
QNH
hPa
Press
MSL
hPa
Rain since
9am
mm
Dir  Spd
km/h
Gust
km/h
Spd
kts
Gust
kts
26/11:30pm 5.2 2.7 4.6 96 0.3 E 7 9 4 5 1021.4 1021.3 0.0
26/11:00pm 5.4 2.9 4.7 95 0.3 E 7 9 4 5 1021.5 1021.5 0.0
26/10:30pm 6.3 3.6 5.7 96 0.3 ENE 9 11 5 6 1021.7 1021.7 0.0
26/10:00pm 6.4 3.7 5.7 95 0.3 NE 9 11 5 6 1021.8 1021.8 0.0
26/09:30pm 6.7 4.1 6.0 95 0.3 ENE 9 11 5 6 1021.8 1021.8 0.0
26/09:00pm 7.4 4.8 6.3 93 0.5 ENE 9 11 5 6 1021.8 1021.8 0.0
26/08:30pm 8.5 6.1 7.0 90 0.7 S 9 13 5 7 1021.8 1021.8 0.0
26/08:00pm 8.5 7.9 7.3 92 0.6 CALM 0 0 0 0 1021.8 1021.8 0.0
26/07:30pm 8.9 8.3 7.2 89 0.8 CALM 0 0 0 0 1021.8 1021.8 0.0
26/07:00pm 9.9 8.1 7.0 82 1.4 SSW 6 7 3 4 1021.5 1021.5 0.0
26/06:30pm 11.7 9.7 8.7 82 1.5 S 9 11 5 6 1021.3 1021.2 0.0
26/06:00pm 11.2 8.3 8.1 81 1.5 S 13 15 7 8 1021.0 1020.9 0.0
26/05:30pm 12.3 9.8 8.4 77 2.0 S 11 13 6 7 1020.8 1020.7 0.0
26/05:00pm 14.0 11.2 8.6 70 2.8 S 13 17 7 9 1020.8 1020.7 0.0
26/04:30pm 15.5 12.0 8.7 64 3.5 SSW 17 20 9 11 1020.7 1020.6 0.0
26/04:00pm 16.1 12.1 8.3 60 4.0 S 19 24 10 13 1020.7 1020.6 0.0
26/03:30pm 16.2 11.7 8.7 61 3.9 SSW 22 28 12 15 1020.6 1020.5 0.0
26/03:00pm 16.1 11.9 8.1 59 4.1 S 20 30 11 16 1020.6 1020.5 0.0
26/02:30pm 16.7 12.7 8.9 60 4.1 S 20 28 11 15 1020.7 1020.6 0.0
26/02:00pm 16.4 12.6 8.9 61 3.9 S 19 26 10 14 1021.0 1020.9 0.0
26/01:30pm 16.6 13.3 9.5 63 3.8 S 17 24 9 13 1021.4 1021.3 0.0
26/01:00pm 16.0 11.6 9.0 63 3.6 S 22 28 12 15 1021.7 1021.7 0.0
26/12:30pm 16.2 11.9 9.4 64 3.6 S 22 28 12 15 1022.0 1022.0 0.0
26/12:00pm 15.6 10.7 8.4 62 3.7 S 24 32 13 17 1022.4 1022.4 0.0
26/11:30am 15.0 9.6 7.8 62 3.6 S 26 35 14 19 1023.0 1023.0 0.0
26/11:00am 14.6 9.2 7.9 64 3.4 S 26 33 14 18 1023.5 1023.5 0.0
26/10:30am 14.4 11.2 8.4 67 3.1 SSW 15 24 8 13 1023.7 1023.7 0.0
26/10:00am 13.0 10.2 8.7 75 2.2 SSW 13 15 7 8 1024.0 1023.9 0.0
26/09:30am 12.4 9.4 7.7 73 2.3 SSE 13 20 7 11 1023.9 1023.8 0.0
26/09:00am 8.5 7.6 7.7 95 0.4 SSE 2 6 1 3 1023.7 1023.7 0.0
26/08:30am 7.1 6.3 6.7 97 0.2 CALM 0 0 0 0 1023.6 1023.6 0.0
26/08:00am 5.2 4.1 5.1 99 0.0 CALM 0 0 0 0 1023.3 1023.3 0.0
26/07:30am 3.0 1.1 2.7 98 0.1 E 2 6 1 3 1023.1 1023.1 0.0
26/07:00am 2.7 1.1 2.4 98 0.1 CALM 0 0 0 0 1022.9 1022.9 0.0
26/06:30am 2.4 0.3 2.0 97 0.2 ESE 2 6 1 3 1022.7 1022.7 0.0
26/06:00am 2.6 -0.4 2.2 97 0.2 ESE 7 7 4 4 1022.5 1022.5 0.0
26/05:30am 2.8 0.1 2.4 97 0.2 ESE 6 7 3 4 1022.3 1022.3 0.0
26/05:00am 3.1 0.2 2.7 97 0.2 ESE 7 9 4 5 1022.1 1022.1 0.0
26/04:30am 3.6 0.8 3.2 97 0.2 ESE 7 9 4 5 1022.1 1022.1 0.0
26/04:00am 3.6 0.8 3.2 97 0.2 ESE 7 9 4 5 1022.1 1022.1 0.0
26/03:30am 3.8 1.2 3.2 96 0.2 ESE 6 7 3 4 1022.0 1022.0 0.0
26/03:00am 4.4 2.3 3.8 96 0.3 ESE 4 6 2 3 1022.0 1022.0 0.0
26/02:30am 4.8 3.5 4.1 95 0.3 CALM 0 0 0 0 1022.0 1022.0 0.0
26/02:00am 4.7 3.3 3.8 94 0.4 CALM 0 0 0 0 1022.2 1022.2 0.0
26/01:30am 5.2 3.5 4.2 93 0.4 SE 2 7 1 4 1022.3 1022.3 0.0
26/01:00am 5.5 3.7 3.7 88 0.8 E 2 7 1 4 1022.3 1022.3 0.0
26/12:30am 7.2 4.1 5.7 90 0.7 SE 11 11 6 6 1022.6 1022.6 0.0
26/12:00am 8.0 6.0 6.1 88 0.9 SSE 6 13 3 7 1022.7 1022.7 0.0
 
Date/Time
EST
Temp
°C
App
Temp
°C
Dew
Point
°C
Rel
Hum
%
Delta-T
°C
Wind Press
QNH
hPa
Press
MSL
hPa
Rain since
9am
mm
Dir  Spd
km/h
Gust
km/h
Spd
kts
Gust
kts
25/11:30pm 8.2 4.9 6.2 87 0.9 SE 13 15 7 8 1022.8 1022.8 0.0
25/11:00pm 8.5 4.8 6.3 86 1.0 SE 15 17 8 9 1022.9 1022.9 0.0
25/10:30pm 9.1 5.1 6.7 85 1.1 SE 17 20 9 11 1022.9 1022.9 0.0
25/10:00pm 9.0 5.0 6.6 85 1.1 ESE 17 19 9 10 1023.0 1023.0 0.0
25/09:30pm 9.1 5.4 6.4 83 1.3 SE 15 19 8 10 1023.0 1023.0 0.0
25/09:00pm 10.3 6.0 7.0 80 1.6 SSE 19 20 10 11 1022.9 1022.9 0.0
25/08:30pm 10.4 7.1 8.2 86 1.1 SSE 15 20 8 11 1023.0 1023.0 0.0
25/08:00pm 8.7 6.1 6.3 85 1.1 SSW 9 11 5 6 1022.9 1022.9 0.0
25/07:30pm 9.7 7.3 7.0 83 1.3 S 9 11 5 6 1022.7 1022.7 0.0
25/07:00pm 10.0 7.6 7.1 82 1.4 S 9 13 5 7 1022.3 1022.3 0.0
25/06:30pm 10.3 8.0 7.4 82 1.4 S 9 13 5 7 1022.1 1022.1 0.0
25/06:00pm 10.7 7.3 7.6 81 1.5 SSW 15 17 8 9 1022.1 1022.1 0.0
25/05:30pm 11.5 8.4 7.4 76 2.0 SSW 13 17 7 9 1021.6 1021.6 0.0
25/05:00pm 13.2 9.4 7.6 69 2.8 SSW 17 20 9 11 1021.4 1021.3 0.0
25/04:30pm 14.3 10.2 7.8 65 3.3 SSW 19 26 10 14 1021.3 1021.2 0.0
25/04:00pm 14.9 10.7 8.4 65 3.3 SSW 20 24 11 13 1021.2 1021.1 0.0
25/03:30pm 15.2 11.1 8.7 65 3.4 SSW 20 26 11 14 1021.3 1021.2 0.0
25/03:00pm 15.4 10.9 8.4 63 3.6 SSW 22 30 12 16 1021.2 1021.1 0.0
25/02:30pm 15.5 11.0 8.5 63 3.6 SSW 22 30 12 16 1021.3 1021.2 0.0
25/02:00pm 15.5 10.9 8.0 61 3.8 SSW 22 28 12 15 1021.4 1021.3 0.0
25/01:30pm 15.5 11.4 8.5 63 3.6 SSW 20 28 11 15 1021.5 1021.5 0.0
25/01:00pm 15.9 11.8 8.6 62 3.8 SSW 20 26 11 14 1021.7 1021.7 0.0
25/12:30pm 15.4 11.9 8.9 65 3.4 SSW 17 26 9 14 1022.0 1022.0 0.0
25/12:00pm 14.7 11.4 8.2 65 3.3 SSW 15 24 8 13 1022.3 1022.3 0.0
25/11:30am 14.4 12.3 9.6 73 2.5 SSW 11 19 6 10 1022.8 1022.8 0.0
25/11:00am 13.6 11.7 9.1 74 2.3 SSW 9 15 5 8 1023.2 1023.2 0.0
25/10:30am 13.0 12.1 9.3 78 1.9 WSW 4 11 2 6 1023.3 1023.3 0.0
25/10:00am 12.0 10.6 9.4 84 1.3 WSW 7 11 4 6 1023.4 1023.4 0.0
25/09:30am 10.9 10.6 8.8 87 1.1 CALM 0 0 0 0 1023.3 1023.3 0.0
25/09:00am 9.8 9.5 8.6 92 0.6 CALM 0 0 0 0 1023.0 1023.0 0.0
25/08:30am 7.8 6.1 7.7 99 0.0 NE 6 7 3 4 1022.8 1022.8 0.0
25/08:00am 6.0 3.9 5.9 99 0.0 NNE 6 7 3 4 1022.8 1022.8 0.0
25/07:30am 5.2 2.8 5.1 99 0.0 NE 7 9 4 5 1022.6 1022.6 0.0
25/07:00am 3.9 1.2 3.6 98 0.1 NE 7 11 4 6 1022.4 1022.4 0.0
25/06:30am 3.5 0.9 3.2 98 0.1 NE 6 7 3 4 1022.1 1022.1 0.0
25/06:00am 4.2 1.2 3.9 98 0.1 ENE 9 11 5 6 1021.8 1021.8 0.0
25/05:30am 4.0 2.6 3.7 98 0.1 CALM 0 0 0 0 1021.6 1021.6 0.0
25/05:00am 4.2 2.9 3.9 98 0.1 CALM 0 0 0 0 1021.6 1021.6 0.0
25/04:30am 4.3 1.8 4.0 98 0.1 ENE 6 7 3 4 1021.4 1021.3 0.0
25/04:00am 4.2 1.5 3.9 98 0.1 E 7 11 4 6 1021.3 1021.2 0.0
25/03:30am 4.3 1.7 4.0 98 0.1 ENE 7 9 4 5 1021.2 1021.1 0.0
25/03:00am 4.2 2.8 3.8 97 0.2 CALM 0 0 0 0 1021.2 1021.1 0.0
25/02:30am 5.1 3.9 4.7 97 0.2 CALM 0 0 0 0 1021.3 1021.2 0.0
25/02:00am 5.5 3.1 5.2 98 0.1 SSE 7 9 4 5 1021.5 1021.5 0.0
25/01:30am 5.3 3.0 4.9 97 0.2 SSE 6 9 3 5 1021.5 1021.5 0.0
25/01:00am 5.8 3.6 5.4 97 0.2 SSE 6 7 3 4 1021.5 1021.5 0.0
25/12:30am 6.0 3.8 5.4 96 0.3 SSE 6 7 3 4 1021.6 1021.6 0.0
25/12:00am 6.4 5.4 5.7 95 0.3 CALM 0 0 0 0 1021.9 1021.9 0.0
 
Date/Time
EST
Temp
°C
App
Temp
°C
Dew
Point
°C
Rel
Hum
%
Delta-T
°C
Wind Press
QNH
hPa
Press
MSL
hPa
Rain since
9am
mm
Dir  Spd
km/h
Gust
km/h
Spd
kts
Gust
kts
24/11:30pm 7.0 4.8 6.3 95 0.3 SSE 7 9 4 5 1022.0 1022.0 0.0
24/11:00pm 7.3 4.8 6.6 95 0.3 SSE 9 11 5 6 1022.0 1022.0 0.0
24/10:30pm 7.5 5.4 6.6 94 0.4 SSE 7 9 4 5 1021.9 1021.9 0.0
24/10:00pm 7.9 7.2 7.0 94 0.4 CALM 0 0 0 0 1021.8 1021.8 0.0
24/09:30pm 8.3 7.6 7.1 92 0.6 CALM 0 0 0 0 1021.8 1021.8 0.0
24/09:00pm 8.7 8.1 7.2 90 0.7 CALM 0 0 0 0 1021.5 1021.5 0.0
24/08:30pm 9.3 8.7 7.3 87 1.0 CALM 0 0 0 0 1021.2 1021.1 0.0
24/08:00pm 10.9 10.6 8.7 86 1.1 CALM 0 0 0 0 1021.0 1020.9 0.0

Other Formats:

Comma delimited format used in spreadsheet applications
http://www.bom.gov.au/fwo/IDN60801/IDN60801.95717.axf

JavaScript Object Notation format (JSON) in row-major order
http://www.bom.gov.au/fwo/IDN60801/IDN60801.95717.json